Airfield :
LOGIN :

Register | Disclaimer

   EN    FR    IT 

 










Legend :    VFR   Marginal VFR   IFR   Intensive IFR   Very Intensive IFR
Visi :
Ceiling :
>= 8 km
>= 3000ft
5 to 8 km
1000 to 3000 ft
1500m to 5 km
500 to 1000 ft
800 to 1500m
200 to 500 ft
< 800m
< 200 ft
Symbols :   Thunderstorms  Fog  Heavy snow  Heavy precipitations  Wind > 20 kt
SIGMETs :     Misc.  Thunderstorms  Icing  Turbulence  Mountain Waves  Volcanic Ashes







- Airport Elevation : 194 ft
- IATA code : LME
- Download approach charts


LFRM - Le Mans

CURRENT METAR :
  • 231730Z AUTO 22010KT 180V240 9999 OVC020 14/10 Q1023 BECMG BKN007

EXPIRED METARs :
  • 231700Z AUTO 22010KT 190V250 9999 BKN025 BKN031 OVC040 14/10 Q1023 TEMPO 2000 BR BKN002
  • 231630Z AUTO 22007KT 190V260 9999 BKN029 BKN046 14/10 Q1023 TEMPO 2000 BR BKN002
  • 231600Z AUTO 22009KT 190V260 9999 FEW029 SCT042 BKN086 15/10 Q1023 BECMG BKN008
  • 231530Z AUTO 21008KT 170V250 9999 FEW019 SCT054 OVC088 15/12 Q1023 BECMG BKN008
  • 231500Z AUTO 22008KT 180V240 9999 SCT016 BKN058 BKN072 14/12 Q1023 BECMG BKN008

TAF TAF LFRM
Valid from the 23 at 18:00 until the 24 at 03:00 UTC


231700Z 2318/2403 22008KT 9999 BKN020
BECMG 2318/2320 BKN007
TEMPO 2320/2403 2000 -DZ BR BKN002
No reported NOTAMs for that airfield.



MET'MAP, your aeronautical weather chart ! - Copyright ORBIFLY December 2007 - Disclaimer

ORBIFLY MET'MAP TEAM :

Programming & Development : Alexandra Zaïnal
Concept & Development : Baudouin d'Aumeries
Co-Development & Prog : Marc-Olivier Méhu
Technical & hardware support : Manuel Goepfert

Contact : metmap@orbifly.com




SOURCES & CREDITS :

   NOAA